createdAt,value
2018-11-12T00:01:55.267Z,5.57
2018-11-12T00:04:22.858Z,4.23
2018-11-12T00:06:50.290Z,7.03
2018-11-12T00:09:17.649Z,4.63
2018-11-12T00:11:45.161Z,4.90
2018-11-12T00:14:12.471Z,4.93
2018-11-12T00:16:39.956Z,6.10
2018-11-12T00:19:07.409Z,6.83
2018-11-12T00:21:34.730Z,5.70
2018-11-12T00:24:02.130Z,5.10
2018-11-12T00:26:29.515Z,5.00
2018-11-12T00:28:57.110Z,5.40
2018-11-12T00:31:24.781Z,5.57
2018-11-12T00:33:52.107Z,6.90
2018-11-12T00:36:19.484Z,5.43
2018-11-12T00:38:46.836Z,6.13
2018-11-12T00:41:14.159Z,7.83
2018-11-12T00:43:41.626Z,6.00
2018-11-12T00:46:08.999Z,6.77
2018-11-12T00:48:36.360Z,6.37
2018-11-12T00:51:03.695Z,7.47
2018-11-12T00:53:31.010Z,6.00
2018-11-12T00:55:58.363Z,6.47
2018-11-12T00:58:25.702Z,5.60
2018-11-12T01:00:53.404Z,6.53
2018-11-12T01:03:20.677Z,7.43
2018-11-12T01:05:48.018Z,9.20
2018-11-12T01:08:15.367Z,5.93
2018-11-12T01:10:42.743Z,6.30
2018-11-12T01:13:10.108Z,6.13
2018-11-12T01:15:37.835Z,6.20
2018-11-12T01:18:05.176Z,5.40
2018-11-12T01:20:32.508Z,5.70
2018-11-12T01:22:59.890Z,6.03
2018-11-12T01:25:27.333Z,5.83
2018-11-12T01:27:54.726Z,5.97
2018-11-12T01:30:22.137Z,5.60
2018-11-12T01:32:49.481Z,6.60
2018-11-12T01:35:17.732Z,5.70
2018-11-12T01:37:45.149Z,5.57
2018-11-12T01:40:13.220Z,5.43
2018-11-12T01:42:40.611Z,4.90
2018-11-12T01:45:08.893Z,4.97
2018-11-12T01:47:36.213Z,5.13
2018-11-12T01:50:04.187Z,6.00
2018-11-12T01:52:31.534Z,6.70
2018-11-12T01:54:58.914Z,5.83
2018-11-12T01:57:26.255Z,4.80
2018-11-12T01:59:53.603Z,7.57
2018-11-12T02:02:20.929Z,5.23
2018-11-12T02:04:48.355Z,7.00
2018-11-12T02:07:15.655Z,5.10
2018-11-12T02:09:43.051Z,4.47
2018-11-12T02:12:10.371Z,5.73
2018-11-12T02:14:37.816Z,5.00
2018-11-12T02:17:05.818Z,4.13
2018-11-12T02:19:33.138Z,4.70
2018-11-12T02:22:00.511Z,4.63
2018-11-12T02:24:27.849Z,4.07
2018-11-12T02:26:55.583Z,3.70
2018-11-12T02:29:23.156Z,4.20
2018-11-12T02:31:50.467Z,3.93
2018-11-12T02:34:17.893Z,4.57
2018-11-12T02:36:45.370Z,4.20
2018-11-12T02:39:12.739Z,6.30
2018-11-12T02:41:40.255Z,5.87
2018-11-12T02:44:08.313Z,4.10
2018-11-12T02:46:36.086Z,4.90
2018-11-12T02:49:03.716Z,4.70
2018-11-12T02:51:31.098Z,5.27
2018-11-12T02:53:58.427Z,4.50
2018-11-12T02:56:25.786Z,4.20
2018-11-12T02:58:53.200Z,4.50
2018-11-12T03:01:22.572Z,4.50
2018-11-12T03:03:50.321Z,5.30
2018-11-12T03:06:17.776Z,4.80
2018-11-12T03:08:45.344Z,5.00
2018-11-12T03:11:12.736Z,4.97
2018-11-12T03:13:40.106Z,4.27
2018-11-12T03:16:07.530Z,6.30
2018-11-12T03:18:34.850Z,4.70
2018-11-12T03:21:02.192Z,4.60
2018-11-12T03:23:29.555Z,4.50
2018-11-12T03:25:56.853Z,4.70
2018-11-12T03:28:24.227Z,5.07
2018-11-12T03:30:51.529Z,4.80
2018-11-12T03:33:18.876Z,4.50
2018-11-12T03:35:46.182Z,4.97
2018-11-12T03:38:13.531Z,4.60
2018-11-12T03:40:40.898Z,7.30
2018-11-12T03:43:08.259Z,4.67
2018-11-12T03:45:35.673Z,4.00
2018-11-12T03:48:03.135Z,5.07
2018-11-12T03:50:30.498Z,5.23
2018-11-12T03:52:57.843Z,4.77
2018-11-12T03:55:25.251Z,5.33
2018-11-12T03:57:52.598Z,3.80
2018-11-12T04:00:22.625Z,5.80
2018-11-12T04:02:49.880Z,5.70
2018-11-12T04:05:17.305Z,4.97
2018-11-12T04:07:44.748Z,4.93
2018-11-12T04:10:14.595Z,4.67
2018-11-12T04:12:41.906Z,5.03
2018-11-12T04:15:10.678Z,4.80
2018-11-12T04:17:38.082Z,6.40
2018-11-12T04:20:05.701Z,5.63
2018-11-12T04:22:33.065Z,7.57
2018-11-12T04:25:00.457Z,5.70
2018-11-12T04:27:27.780Z,5.77
2018-11-12T04:29:55.114Z,5.07
2018-11-12T04:32:22.497Z,6.23
2018-11-12T04:34:49.922Z,6.60
2018-11-12T04:37:17.330Z,6.00
2018-11-12T04:39:44.679Z,7.33
2018-11-12T04:42:12.042Z,6.10
2018-11-12T04:44:39.455Z,8.10
2018-11-12T04:47:07.168Z,5.70
2018-11-12T04:49:34.548Z,5.50
2018-11-12T04:52:01.919Z,5.73
2018-11-12T04:54:29.280Z,5.90
2018-11-12T04:56:56.761Z,5.80
2018-11-12T04:59:24.116Z,9.20
2018-11-12T05:01:51.517Z,6.17
2018-11-12T05:04:18.840Z,7.07
2018-11-12T05:06:46.206Z,5.23
2018-11-12T05:09:13.528Z,5.73
2018-11-12T05:11:41.571Z,6.90
2018-11-12T05:14:08.951Z,6.57
2018-11-12T05:16:36.524Z,6.33
2018-11-12T05:19:03.755Z,6.37
2018-11-12T05:21:31.093Z,5.87
2018-11-12T05:23:58.403Z,7.80
2018-11-12T05:26:25.872Z,6.90
2018-11-12T05:28:53.300Z,7.80
2018-11-12T05:31:20.668Z,5.97
2018-11-12T05:33:48.051Z,5.60
2018-11-12T05:36:15.363Z,6.30
2018-11-12T05:38:42.936Z,5.93
2018-11-12T05:41:10.261Z,5.57
2018-11-12T05:43:37.631Z,6.77
2018-11-12T05:46:04.983Z,7.30
2018-11-12T05:48:32.304Z,5.73
2018-11-12T05:50:59.670Z,6.13
2018-11-12T05:53:27.052Z,5.47
2018-11-12T05:55:54.358Z,7.07
2018-11-12T05:58:21.889Z,7.00
2018-11-12T06:00:49.255Z,6.83
2018-11-12T06:03:16.588Z,6.50
2018-11-12T06:05:44.017Z,6.43
2018-11-12T06:08:11.833Z,7.57
2018-11-12T06:10:39.174Z,6.83
2018-11-12T06:13:06.536Z,6.40
2018-11-12T06:15:33.835Z,7.03
2018-11-12T06:18:01.363Z,6.07
2018-11-12T06:20:30.219Z,8.10
2018-11-12T06:22:57.699Z,6.73
2018-11-12T06:25:26.507Z,4.70
2018-11-12T06:27:53.931Z,5.63
2018-11-12T06:30:23.206Z,5.40
2018-11-12T06:32:51.020Z,7.30
2018-11-12T06:35:18.851Z,8.87
2018-11-12T06:37:46.948Z,9.13
2018-11-12T06:40:15.566Z,9.00
2018-11-12T06:42:43.006Z,10.80
2018-11-12T06:45:12.880Z,8.83
2018-11-12T06:47:40.671Z,9.10
2018-11-12T06:50:09.098Z,9.47
2018-11-12T06:52:36.574Z,8.73
2018-11-12T06:55:03.939Z,13.47
2018-11-12T06:57:31.289Z,8.40
2018-11-12T06:59:58.708Z,10.57
2018-11-12T07:02:26.094Z,8.90
2018-11-12T07:04:53.443Z,7.63
2018-11-12T07:07:20.920Z,6.97
2018-11-12T07:09:48.254Z,7.00
2018-11-12T07:12:15.547Z,6.60
2018-11-12T07:14:42.966Z,8.87
2018-11-12T07:17:10.350Z,7.07
2018-11-12T07:19:37.613Z,7.80
2018-11-12T07:22:05.150Z,7.40
2018-11-12T07:24:32.574Z,6.87
2018-11-12T07:26:59.916Z,8.00
2018-11-12T07:29:27.253Z,10.60
2018-11-12T07:31:54.562Z,6.33
2018-11-12T07:34:22.388Z,8.33
2018-11-12T07:39:28.255Z,6.40
2018-11-12T07:41:56.088Z,6.87
2018-11-12T07:44:23.378Z,6.07
2018-11-12T07:46:50.687Z,7.80
2018-11-12T07:49:18.072Z,6.50
2018-11-12T07:51:45.434Z,6.20
2018-11-12T07:54:12.740Z,6.03
2018-11-12T07:56:40.149Z,5.57
2018-11-12T07:59:07.521Z,6.07
2018-11-12T08:01:34.985Z,6.40
2018-11-12T08:04:02.361Z,6.23
2018-11-12T08:06:29.726Z,6.70
2018-11-12T08:08:57.089Z,5.73
2018-11-12T08:11:24.369Z,5.67
2018-11-12T08:13:51.816Z,9.73
2018-11-12T08:16:19.094Z,7.03
2018-11-12T08:18:46.597Z,6.53
2018-11-12T08:21:13.985Z,5.83
2018-11-12T08:23:41.273Z,5.50
2018-11-12T08:26:08.636Z,5.43
2018-11-12T08:28:36.033Z,5.20
2018-11-12T08:31:03.359Z,6.90
2018-11-12T08:33:30.639Z,6.70
2018-11-12T08:35:57.972Z,5.87
2018-11-12T08:38:25.290Z,6.07
2018-11-12T08:40:52.834Z,5.37
2018-11-12T08:43:19.965Z,6.13
2018-11-12T08:45:47.318Z,6.07
2018-11-12T08:48:14.682Z,5.43
2018-11-12T08:50:42.044Z,7.73
2018-11-12T08:53:09.364Z,5.53
2018-11-12T08:55:36.741Z,5.70
2018-11-12T09:00:39.942Z,4.70
2018-11-12T09:03:07.298Z,4.73
2018-11-12T09:05:34.617Z,4.70
2018-11-12T09:08:03.054Z,4.10
2018-11-12T09:10:32.741Z,3.97
2018-11-12T09:13:00.136Z,4.57
2018-11-12T09:15:27.483Z,4.50
2018-11-12T09:17:55.233Z,4.80
2018-11-12T09:20:25.678Z,4.97
2018-11-12T09:22:53.228Z,4.20
2018-11-12T09:25:21.687Z,5.77
2018-11-12T09:27:48.987Z,4.50
2018-11-12T09:48:37.182Z,4.73
2018-11-12T09:51:04.725Z,4.40
2018-11-12T09:53:32.105Z,3.77
2018-11-12T09:55:59.431Z,4.60
2018-11-12T09:58:26.759Z,4.10
2018-11-12T10:00:54.413Z,4.13
2018-11-12T10:03:27.760Z,3.80
2018-11-12T10:05:56.039Z,4.40
2018-11-12T10:08:23.340Z,4.00
2018-11-12T10:10:56.159Z,7.03
2018-11-12T10:13:26.215Z,4.07
2018-11-12T10:15:53.185Z,3.37
2018-11-12T10:18:18.244Z,4.57
2018-11-12T10:20:45.698Z,3.87
2018-11-12T10:23:13.027Z,3.70
2018-11-12T10:25:40.373Z,3.60
2018-11-12T10:28:07.686Z,4.07
2018-11-12T10:30:35.232Z,5.20
2018-11-12T10:33:02.607Z,5.47
2018-11-12T10:35:30.016Z,3.37
2018-11-12T10:37:57.332Z,4.93
2018-11-12T10:40:25.099Z,7.90
2018-11-12T10:42:52.568Z,6.53
2018-11-12T10:45:20.038Z,4.73
2018-11-12T10:47:48.688Z,3.60
2018-11-12T10:50:16.159Z,4.30
2018-11-12T10:52:43.545Z,8.10
2018-11-12T10:55:12.416Z,4.17
2018-11-12T10:57:39.989Z,4.10
2018-11-12T11:00:14.682Z,3.47
2018-11-12T11:02:47.485Z,7.50
2018-11-12T11:05:15.331Z,4.57
2018-11-12T11:07:42.655Z,3.60
2018-11-12T11:10:10.079Z,3.87
2018-11-12T11:12:37.419Z,3.80
2018-11-12T11:15:04.866Z,3.53
2018-11-12T11:17:32.217Z,4.63
2018-11-12T11:19:59.584Z,5.23
2018-11-12T11:22:26.988Z,3.67
2018-11-12T11:24:54.329Z,4.50
2018-11-12T11:27:21.672Z,4.60
2018-11-12T11:29:49.079Z,6.77
2018-11-12T11:32:16.437Z,6.50
2018-11-12T11:34:43.794Z,5.33
2018-11-12T11:37:11.206Z,4.17
2018-11-12T11:39:38.542Z,6.90
2018-11-12T11:42:06.013Z,6.20
2018-11-12T11:44:33.365Z,4.90
2018-11-12T11:47:00.723Z,5.47
2018-11-12T11:49:28.073Z,5.30
2018-11-12T11:51:55.409Z,6.23
2018-11-12T11:54:22.749Z,5.20
2018-11-12T11:56:50.239Z,4.07
2018-11-12T11:59:17.474Z,5.77
2018-11-12T12:01:44.848Z,13.00
2018-11-12T12:04:12.097Z,5.13
2018-11-12T12:06:39.524Z,6.10
2018-11-12T12:09:07.475Z,6.23
2018-11-12T12:11:34.753Z,5.83
2018-11-12T12:14:02.380Z,7.87
2018-11-12T12:16:29.783Z,6.40
2018-11-12T12:18:57.090Z,6.33
2018-11-12T12:21:24.427Z,5.97
2018-11-12T12:23:51.746Z,5.27
2018-11-12T12:26:19.055Z,5.10
2018-11-12T12:28:46.373Z,5.60
2018-11-12T12:31:14.281Z,4.87
2018-11-12T12:33:41.726Z,8.03
2018-11-12T12:36:09.263Z,9.83
2018-11-12T12:38:36.569Z,5.13
2018-11-12T12:41:04.026Z,4.70
2018-11-12T12:43:31.384Z,7.90
2018-11-12T12:45:58.774Z,4.43
2018-11-12T12:48:26.081Z,5.30
2018-11-12T12:50:53.390Z,4.87
2018-11-12T12:53:20.720Z,4.50
2018-11-12T12:55:48.300Z,3.97
2018-11-12T12:58:15.603Z,5.40
2018-11-12T13:00:42.928Z,4.20
2018-11-12T13:03:10.485Z,5.20
2018-11-12T13:05:37.924Z,4.07
2018-11-12T13:08:05.426Z,4.00
2018-11-12T13:10:32.810Z,4.50
2018-11-12T13:13:00.213Z,3.37
2018-11-12T13:15:27.567Z,3.90
2018-11-12T13:17:55.121Z,3.80
2018-11-12T13:20:23.972Z,6.13
2018-11-12T13:22:51.463Z,3.67
2018-11-12T13:25:18.843Z,4.00
2018-11-12T13:27:47.227Z,4.20
2018-11-12T13:30:19.036Z,3.80
2018-11-12T13:32:46.722Z,3.97
2018-11-12T13:35:15.315Z,5.30
2018-11-12T13:37:42.824Z,6.80
2018-11-12T13:40:12.699Z,4.30
2018-11-12T13:42:40.665Z,4.83
2018-11-12T13:45:08.531Z,4.30
2018-11-12T13:47:35.915Z,7.00
2018-11-12T13:50:03.295Z,6.13
2018-11-12T13:52:30.682Z,5.00
2018-11-12T13:54:58.095Z,4.57
2018-11-12T13:57:25.566Z,3.10
2018-11-12T13:59:52.917Z,6.47
2018-11-12T14:02:20.290Z,3.50
2018-11-12T14:04:47.699Z,4.50
2018-11-12T14:07:15.147Z,3.63
2018-11-12T14:09:42.667Z,4.23
2018-11-12T14:12:10.095Z,5.40
2018-11-12T14:14:37.473Z,4.50
2018-11-12T14:17:05.036Z,3.60
2018-11-12T14:19:32.425Z,3.57
2018-11-12T14:22:00.007Z,4.30
2018-11-12T14:24:27.436Z,3.87
2018-11-12T14:26:54.840Z,4.00
2018-11-12T14:29:22.290Z,4.00
2018-11-12T14:31:49.707Z,4.53
2018-11-12T14:34:17.508Z,3.70
2018-11-12T14:36:44.901Z,3.93
2018-11-12T14:39:12.329Z,4.53
2018-11-12T14:41:39.770Z,5.00
2018-11-12T14:44:07.236Z,5.20
2018-11-12T14:46:34.662Z,5.03
2018-11-12T14:49:03.167Z,5.07
2018-11-12T14:51:30.615Z,5.53
2018-11-12T14:53:58.286Z,6.07
2018-11-12T14:56:25.675Z,5.10
2018-11-12T14:58:53.094Z,4.70
2018-11-12T15:01:20.435Z,6.40
2018-11-12T15:03:49.428Z,5.83
2018-11-12T15:06:17.200Z,5.80
2018-11-12T15:08:44.598Z,4.83
2018-11-12T15:11:11.925Z,5.00
2018-11-12T15:13:39.302Z,4.77
2018-11-12T15:16:06.829Z,4.47
2018-11-12T15:18:34.346Z,6.33
2018-11-12T15:21:01.793Z,6.00
2018-11-12T15:23:29.219Z,4.53
2018-11-12T15:25:56.555Z,3.93
2018-11-12T15:28:24.301Z,6.53
2018-11-12T15:30:51.676Z,8.23
2018-11-12T15:33:19.041Z,4.70
2018-11-12T15:35:46.426Z,5.20
2018-11-12T15:38:13.941Z,4.67
2018-11-12T15:40:42.492Z,7.37
2018-11-12T15:43:10.122Z,5.90
2018-11-12T15:45:37.818Z,6.80
2018-11-12T15:48:05.228Z,4.37
2018-11-12T15:50:33.818Z,4.90
2018-11-12T15:53:01.271Z,5.03
2018-11-12T15:55:30.328Z,4.00
2018-11-12T15:57:57.885Z,4.53
2018-11-12T16:00:25.313Z,5.47
2018-11-12T16:02:52.834Z,5.33
2018-11-12T16:05:20.433Z,5.93
2018-11-12T16:07:47.990Z,5.10
2018-11-12T16:10:17.782Z,5.90
2018-11-12T16:12:45.496Z,6.27
2018-11-12T16:15:14.164Z,8.80
2018-11-12T16:17:41.923Z,5.43
2018-11-12T16:20:16.348Z,6.30
2018-11-12T16:22:44.802Z,6.93
2018-11-12T16:25:12.437Z,5.93
2018-11-12T16:27:40.735Z,6.67
2018-11-12T16:30:09.344Z,6.63
2018-11-12T16:32:38.612Z,5.57
2018-11-12T16:35:08.732Z,7.20
2018-11-12T16:37:36.594Z,7.33
2018-11-12T16:51:22.481Z,9.70
2018-11-12T16:53:49.858Z,6.13
2018-11-12T16:56:17.904Z,7.13
2018-11-12T16:58:45.384Z,6.67
2018-11-12T17:01:16.955Z,6.60
2018-11-12T17:03:44.410Z,9.27
2018-11-12T17:06:11.741Z,12.67
2018-11-12T17:08:39.196Z,8.30
2018-11-12T17:11:06.650Z,8.87
2018-11-12T17:13:33.975Z,7.17
2018-11-12T17:16:01.381Z,7.97
2018-11-12T17:18:28.893Z,8.13
2018-11-12T17:20:56.286Z,8.00
2018-11-12T17:23:23.657Z,9.37
2018-11-12T17:25:51.227Z,8.60
2018-11-12T17:28:18.819Z,8.80
2018-11-12T17:30:46.262Z,8.93
2018-11-12T17:33:13.651Z,10.93
2018-11-12T17:35:41.049Z,10.60
2018-11-12T17:38:08.449Z,11.63
2018-11-12T17:40:35.860Z,10.33
2018-11-12T17:43:03.258Z,10.17
2018-11-12T17:45:31.473Z,9.57
2018-11-12T17:47:58.876Z,12.27
2018-11-12T17:50:26.278Z,10.93
2018-11-12T17:52:53.678Z,10.27
2018-11-12T17:55:21.266Z,8.37
2018-11-12T17:57:49.097Z,11.67
2018-11-12T18:03:13.622Z,11.47
2018-11-12T18:05:41.279Z,9.17
2018-11-12T18:08:08.780Z,9.53
2018-11-12T18:10:36.203Z,8.33
2018-11-12T18:13:03.597Z,9.73
2018-11-12T18:15:31.042Z,8.33
2018-11-12T18:17:58.401Z,8.73
2018-11-12T18:20:27.213Z,8.57
2018-11-12T18:22:55.335Z,8.63
2018-11-12T18:25:22.650Z,6.40
2018-11-12T18:27:49.999Z,6.57
2018-11-12T18:30:19.255Z,8.03
2018-11-12T18:32:47.478Z,9.63
2018-11-12T18:35:14.903Z,8.40
2018-11-12T18:37:42.418Z,8.50
2018-11-12T18:40:11.174Z,9.60
2018-11-12T18:42:38.820Z,7.70
2018-11-12T18:45:07.449Z,7.10
2018-11-12T18:47:34.920Z,8.70
2018-11-12T18:50:02.334Z,6.97
2018-11-12T18:52:29.835Z,8.00
2018-11-12T18:57:30.502Z,5.90
2018-11-12T18:59:57.870Z,9.03
2018-11-12T19:02:25.219Z,7.77
2018-11-12T19:04:52.676Z,8.53
2018-11-12T19:07:20.446Z,6.10
2018-11-12T19:09:47.787Z,7.90
2018-11-12T19:12:15.136Z,8.03
2018-11-12T19:14:44.394Z,9.50
2018-11-12T19:17:11.807Z,11.50
2018-11-12T19:19:39.139Z,9.47
2018-11-12T19:22:06.549Z,8.23
2018-11-12T19:24:33.850Z,7.93
2018-11-12T19:27:01.340Z,9.03
2018-11-12T19:29:28.958Z,9.23
2018-11-12T19:31:56.324Z,8.23
2018-11-12T19:34:23.772Z,7.50
2018-11-12T19:36:51.146Z,8.47
2018-11-12T19:39:18.489Z,8.53
2018-11-12T19:41:45.831Z,7.63
2018-11-12T19:44:13.166Z,9.37
2018-11-12T19:46:40.471Z,7.47
2018-11-12T19:49:07.823Z,11.87
2018-11-12T19:51:35.259Z,7.97
2018-11-12T19:54:02.760Z,8.90
2018-11-12T19:56:30.151Z,11.47
2018-11-12T19:58:57.576Z,10.80
2018-11-12T20:01:25.195Z,9.60
2018-11-12T20:03:52.601Z,13.53
2018-11-12T20:06:19.932Z,8.77
2018-11-12T20:08:47.245Z,8.83
2018-11-12T20:11:14.570Z,10.90
2018-11-12T20:13:41.985Z,8.30
2018-11-12T20:16:09.369Z,9.23
2018-11-12T20:18:36.792Z,10.40
2018-11-12T20:21:04.534Z,8.83
2018-11-12T20:23:31.961Z,10.73
2018-11-12T20:26:14.575Z,8.83
2018-11-12T20:28:41.961Z,9.30
2018-11-12T20:31:09.409Z,9.30
2018-11-12T20:33:36.799Z,9.30
2018-11-12T20:36:04.344Z,10.10
2018-11-12T20:38:32.012Z,10.70
2018-11-12T20:40:59.262Z,9.37
2018-11-12T20:43:26.585Z,9.27
2018-11-12T20:45:53.895Z,9.73
2018-11-12T20:48:21.326Z,10.77
2018-11-12T20:50:48.698Z,9.90
2018-11-12T20:53:17.548Z,14.60
2018-11-12T20:55:45.542Z,13.33
2018-11-12T20:58:13.280Z,11.73
2018-11-12T21:00:40.720Z,11.97
2018-11-12T21:03:08.571Z,11.50
2018-11-12T21:05:36.640Z,12.97
2018-11-12T21:08:04.285Z,13.70
2018-11-12T21:10:31.710Z,16.07
2018-11-12T21:12:59.190Z,13.03
2018-11-12T21:15:26.643Z,13.13
2018-11-12T21:17:54.376Z,12.13
2018-11-12T21:20:23.964Z,13.70
2018-11-12T21:22:51.508Z,11.37
2018-11-12T21:25:20.439Z,13.23
2018-11-12T21:27:48.211Z,12.60
2018-11-12T21:30:20.693Z,14.53
2018-11-12T21:32:48.308Z,13.33
2018-11-12T21:35:15.977Z,12.30
2018-11-12T21:37:43.883Z,20.33
2018-11-12T21:40:14.846Z,18.17
2018-11-12T21:42:42.713Z,17.10
2018-11-12T21:45:12.175Z,17.83
2018-11-12T21:47:40.601Z,14.90
2018-11-12T21:50:10.492Z,15.70
2018-11-12T21:52:38.283Z,13.77
2018-11-12T21:55:06.055Z,16.03
2018-11-12T21:57:33.574Z,17.80
2018-11-12T22:00:01.159Z,17.27
2018-11-12T22:02:28.883Z,14.70
2018-11-12T22:04:56.433Z,13.93
2018-11-12T22:07:23.936Z,14.40
2018-11-12T22:09:51.660Z,19.03
2018-11-12T22:12:19.235Z,17.20
2018-11-12T22:14:46.733Z,13.73
2018-11-12T22:17:14.705Z,16.90
2018-11-12T22:19:42.315Z,20.27
2018-11-12T22:22:09.742Z,18.50
2018-11-12T22:24:37.096Z,17.00
2018-11-12T22:27:04.659Z,17.57
2018-11-12T22:29:32.106Z,21.73
2018-11-12T22:31:59.506Z,20.67
2018-11-12T22:34:26.871Z,19.37
2018-11-12T22:36:54.290Z,18.13
2018-11-12T22:39:21.673Z,18.00
2018-11-12T22:41:49.054Z,20.47
2018-11-12T22:44:16.431Z,19.00
2018-11-12T22:46:43.830Z,23.10
2018-11-12T22:49:11.468Z,20.23
2018-11-12T22:51:39.161Z,22.20
2018-11-12T22:54:06.822Z,21.23
2018-11-12T22:56:34.118Z,23.10
2018-11-12T22:59:01.562Z,21.00
2018-11-12T23:01:28.933Z,20.63
2018-11-12T23:03:56.331Z,19.63
2018-11-12T23:06:23.743Z,20.87
2018-11-12T23:08:51.138Z,27.20
2018-11-12T23:11:18.464Z,17.57
2018-11-12T23:13:45.887Z,15.13
2018-11-12T23:16:13.285Z,17.17
2018-11-12T23:18:40.927Z,16.67
2018-11-12T23:21:08.399Z,15.67
2018-11-12T23:23:35.699Z,14.77
2018-11-12T23:26:03.063Z,12.97
2018-11-12T23:28:30.410Z,13.27
2018-11-12T23:30:57.823Z,13.13
2018-11-12T23:33:25.167Z,12.40
2018-11-12T23:35:52.576Z,15.60
2018-11-12T23:38:19.963Z,13.50
2018-11-12T23:40:47.341Z,13.40
2018-11-12T23:43:15.012Z,12.50
2018-11-12T23:45:42.410Z,12.70
2018-11-12T23:48:09.756Z,12.43
2018-11-12T23:50:37.099Z,13.63
2018-11-12T23:53:04.554Z,11.73
2018-11-12T23:55:31.948Z,11.40
2018-11-12T23:57:59.330Z,10.97
